createdAt,value
2023-03-15T00:00:13.938Z,92752.41
2023-03-15T00:01:16.413Z,92750.34
2023-03-15T00:02:12.958Z,92753.84
2023-03-15T00:03:10.739Z,92782.91
2023-03-15T00:04:07.674Z,92702.13
2023-03-15T00:05:05.143Z,92734.94
2023-03-15T00:06:01.823Z,92735.81
2023-03-15T00:06:59.425Z,92719.75
2023-03-15T00:07:56.135Z,92748.69
2023-03-15T00:08:52.830Z,92715.38
2023-03-15T00:09:49.407Z,92708.31
2023-03-15T00:10:47.223Z,92726.03
2023-03-15T00:11:43.848Z,92739.78
2023-03-15T00:12:42.747Z,92733.59
2023-03-15T00:13:39.336Z,92737.66
2023-03-15T00:14:36.961Z,92731.69
2023-03-15T00:15:33.573Z,92730.28
2023-03-15T00:16:32.925Z,92730.94
2023-03-15T00:17:29.623Z,92735.03
2023-03-15T00:18:26.642Z,92653.22
2023-03-15T00:19:23.274Z,92727.22
2023-03-15T00:20:20.035Z,92731.63
2023-03-15T00:21:16.691Z,92729.66
2023-03-15T00:22:13.283Z,92698.63
2023-03-15T00:23:10.700Z,92726.66
2023-03-15T00:24:07.382Z,92726.34
2023-03-15T00:25:04.418Z,92721.53
2023-03-15T00:26:01.097Z,92725.47
2023-03-15T00:26:57.820Z,92718.03
2023-03-15T00:27:54.498Z,92729.38
2023-03-15T00:28:51.419Z,92738.00
2023-03-15T00:29:48.103Z,92737.09
2023-03-15T00:30:45.036Z,92716.09
2023-03-15T00:31:41.695Z,92741.97
2023-03-15T00:32:38.635Z,92717.09
2023-03-15T00:33:35.767Z,92736.00
2023-03-15T00:34:33.822Z,92694.44
2023-03-15T00:35:30.423Z,92740.19
2023-03-15T00:36:27.184Z,92717.97
2023-03-15T00:38:51.697Z,92736.22
2023-03-15T00:39:48.808Z,92737.31
2023-03-15T00:40:45.588Z,92727.66
2023-03-15T00:41:42.261Z,92720.97
2023-03-15T00:42:40.093Z,92725.19
2023-03-15T00:43:36.954Z,92716.28
2023-03-15T00:44:33.578Z,92726.41
2023-03-15T00:45:30.422Z,92706.50
2023-03-15T00:46:27.213Z,92712.63
2023-03-15T00:47:23.880Z,92717.75
2023-03-15T00:48:20.497Z,92712.38
2023-03-15T00:49:17.212Z,92693.75
2023-03-15T00:50:13.807Z,92718.84
2023-03-15T00:51:13.480Z,92710.47
2023-03-15T00:52:10.067Z,92725.22
2023-03-15T00:53:06.694Z,92660.69
2023-03-15T00:54:03.558Z,92704.00
2023-03-15T00:55:00.279Z,92700.97
2023-03-15T00:55:57.202Z,92704.72
2023-03-15T00:56:53.880Z,92701.13
2023-03-15T00:57:50.767Z,92666.91
2023-03-15T00:58:48.050Z,92702.59
2023-03-15T00:59:45.059Z,92711.19
2023-03-15T01:00:41.694Z,92700.81
2023-03-15T01:01:41.183Z,92655.25
2023-03-15T01:02:38.433Z,92679.97
2023-03-15T01:03:36.994Z,92700.06
2023-03-15T01:04:33.731Z,92673.63
2023-03-15T01:05:31.364Z,92642.03
2023-03-15T01:06:29.465Z,92691.97
2023-03-15T01:07:26.166Z,92692.00
2023-03-15T01:08:24.194Z,92689.47
2023-03-15T01:09:20.917Z,92693.88
2023-03-15T01:10:18.089Z,92689.31
2023-03-15T01:11:17.420Z,92683.41
2023-03-15T01:12:14.085Z,92573.88
2023-03-15T01:13:10.792Z,92681.28
2023-03-15T01:14:09.003Z,92684.03
2023-03-15T01:15:07.682Z,92679.69
2023-03-15T01:16:04.949Z,92683.28
2023-03-15T01:17:01.744Z,92688.06
2023-03-15T01:17:58.338Z,92675.63
2023-03-15T01:18:55.556Z,92676.28
2023-03-15T01:19:52.210Z,92669.91
2023-03-15T01:20:48.838Z,92666.28
2023-03-15T01:21:47.882Z,92670.81
2023-03-15T01:22:44.465Z,92677.09
2023-03-15T01:23:41.667Z,92669.75
2023-03-15T01:24:38.331Z,92677.91
2023-03-15T01:25:34.924Z,92673.00
2023-03-15T01:26:31.627Z,92651.47
2023-03-15T01:27:28.219Z,92669.47
2023-03-15T01:28:24.850Z,92641.38
2023-03-15T01:29:21.562Z,92653.28
2023-03-15T01:30:18.212Z,92662.19
2023-03-15T01:31:20.011Z,92611.94
2023-03-15T01:32:16.586Z,92667.28
2023-03-15T01:33:13.274Z,92673.00
2023-03-15T01:34:10.446Z,92660.69
2023-03-15T01:35:07.649Z,92658.50
2023-03-15T01:36:06.923Z,92675.03
2023-03-15T01:37:03.629Z,92665.06
2023-03-15T01:38:00.841Z,92668.81
2023-03-15T01:38:57.528Z,92669.97
2023-03-15T01:39:55.628Z,92662.50
2023-03-15T01:40:52.327Z,92632.97
2023-03-15T01:41:49.528Z,92664.44
2023-03-15T01:43:04.209Z,92664.22
2023-03-15T01:44:00.808Z,92627.59
2023-03-15T01:45:02.933Z,92654.75
2023-03-15T01:45:59.553Z,92656.25
2023-03-15T01:46:56.567Z,92652.47
2023-03-15T01:47:53.519Z,92642.81
2023-03-15T01:48:53.780Z,92647.25
2023-03-15T01:49:57.045Z,92586.91
2023-03-15T01:50:57.405Z,92651.06
2023-03-15T01:52:06.825Z,92640.78
2023-03-15T01:53:03.502Z,92651.78
2023-03-15T01:54:00.143Z,92648.88
2023-03-15T01:55:29.194Z,92645.28
2023-03-15T01:56:28.053Z,92648.44
2023-03-15T01:57:51.609Z,92594.22
2023-03-15T01:58:48.786Z,92550.38
2023-03-15T02:00:11.338Z,92633.88
2023-03-15T02:01:09.933Z,92631.13
2023-03-15T02:02:07.868Z,92629.25
2023-03-15T02:03:14.421Z,92629.69
2023-03-15T02:04:16.691Z,92628.81
2023-03-15T02:05:20.567Z,92635.53
2023-03-15T02:06:19.485Z,92635.38
2023-03-15T02:07:18.330Z,92593.41
2023-03-15T02:08:17.979Z,92626.72
2023-03-15T02:09:17.047Z,92631.88
2023-03-15T02:10:16.405Z,92626.03
2023-03-15T02:11:13.786Z,92622.28
2023-03-15T02:12:11.996Z,92625.72
2023-03-15T02:13:11.256Z,92620.72
2023-03-15T02:14:11.116Z,92619.34
2023-03-15T02:15:08.621Z,92619.56
2023-03-15T02:16:07.027Z,92620.66
2023-03-15T02:17:03.773Z,92620.63
2023-03-15T02:18:00.445Z,92575.00
2023-03-15T02:18:57.023Z,92617.72
2023-03-15T02:20:00.391Z,92621.31
2023-03-15T02:21:26.591Z,92614.34
2023-03-15T02:22:27.267Z,92590.97
2023-03-15T02:23:24.827Z,92615.25
2023-03-15T02:24:49.772Z,92609.25
2023-03-15T02:25:58.239Z,92598.03
2023-03-15T02:26:57.285Z,92601.94
2023-03-15T02:27:54.573Z,92602.53
2023-03-15T02:28:53.970Z,92606.66
2023-03-15T02:29:51.051Z,92596.50
2023-03-15T02:30:48.723Z,92503.16
2023-03-15T02:31:45.658Z,92589.56
2023-03-15T02:32:42.521Z,92591.13
2023-03-15T02:33:43.981Z,92598.19
2023-03-15T02:34:40.625Z,92596.31
2023-03-15T02:35:37.230Z,92589.63
2023-03-15T02:36:35.946Z,92587.50
2023-03-15T02:37:32.502Z,92589.19
2023-03-15T02:38:29.118Z,92546.03
2023-03-15T02:39:27.280Z,92589.28
2023-03-15T02:40:27.929Z,92585.78
2023-03-15T02:41:42.483Z,92476.53
2023-03-15T02:42:39.454Z,92594.56
2023-03-15T02:43:36.836Z,92590.13
2023-03-15T02:44:36.408Z,92596.75
2023-03-15T02:45:35.396Z,92587.41
2023-03-15T02:46:32.468Z,92558.34
2023-03-15T02:47:33.564Z,92591.25
2023-03-15T02:48:34.203Z,92584.22
2023-03-15T02:49:38.738Z,92580.28
2023-03-15T02:50:35.425Z,92587.66
2023-03-15T02:51:33.456Z,92588.84
2023-03-15T02:52:30.454Z,92587.75
2023-03-15T02:53:27.020Z,92586.91
2023-03-15T02:54:23.702Z,92589.38
2023-03-15T02:55:21.842Z,92594.56
2023-03-15T02:56:18.531Z,92573.44
2023-03-15T02:57:17.454Z,92582.16
2023-03-15T02:58:14.141Z,92581.38
2023-03-15T02:59:12.863Z,92582.72
2023-03-15T03:00:16.069Z,92574.94
2023-03-15T03:01:17.133Z,92589.00
2023-03-15T03:02:13.928Z,92525.22
2023-03-15T03:03:11.764Z,92584.16
2023-03-15T03:04:08.531Z,92574.00
2023-03-15T03:05:05.499Z,92526.44
2023-03-15T03:06:02.063Z,92584.56
2023-03-15T03:06:58.764Z,92573.72
2023-03-15T03:07:55.448Z,92590.31
2023-03-15T03:08:52.217Z,92578.78
2023-03-15T03:09:48.824Z,92577.41
2023-03-15T03:10:45.445Z,92440.19
2023-03-15T03:11:42.132Z,92574.81
2023-03-15T03:12:39.033Z,92521.72
2023-03-15T03:13:35.662Z,92574.56
2023-03-15T03:14:32.372Z,92573.31
2023-03-15T03:15:29.046Z,92574.69
2023-03-15T03:16:25.759Z,92554.22
2023-03-15T03:17:23.160Z,92564.75
2023-03-15T03:18:19.910Z,92567.41
2023-03-15T03:19:16.568Z,92569.25
2023-03-15T03:20:14.553Z,92563.31
2023-03-15T03:21:11.150Z,92563.22
2023-03-15T03:22:07.925Z,92561.09
2023-03-15T03:23:06.422Z,92554.66
2023-03-15T03:24:03.103Z,92522.91
2023-03-15T03:24:59.685Z,92559.00
2023-03-15T03:25:57.868Z,92557.00
2023-03-15T03:26:57.955Z,92552.34
2023-03-15T03:27:57.269Z,92446.69
2023-03-15T03:28:54.644Z,92550.56
2023-03-15T03:29:51.437Z,92551.22
2023-03-15T03:30:48.097Z,92546.84
2023-03-15T03:31:45.176Z,92555.47
2023-03-15T03:32:41.852Z,92549.88
2023-03-15T03:33:38.827Z,92549.41
2023-03-15T03:34:36.634Z,92501.41
2023-03-15T03:35:33.319Z,92548.84
2023-03-15T03:36:30.262Z,92542.38
2023-03-15T03:37:27.287Z,92540.94
2023-03-15T03:38:23.875Z,92543.34
2023-03-15T03:39:20.575Z,92534.84
2023-03-15T03:40:17.588Z,92539.38
2023-03-15T03:41:14.759Z,92542.53
2023-03-15T03:42:11.651Z,92543.72
2023-03-15T03:43:09.631Z,92540.53
2023-03-15T03:44:06.379Z,92537.78
2023-03-15T03:45:03.225Z,92520.88
2023-03-15T03:45:59.922Z,92529.09
2023-03-15T03:46:56.598Z,92531.63
2023-03-15T03:47:53.356Z,92525.88
2023-03-15T03:48:49.972Z,92488.94
2023-03-15T03:49:46.627Z,92506.38
2023-03-15T03:50:43.510Z,92521.47
2023-03-15T03:51:41.244Z,92525.81
2023-03-15T03:52:38.051Z,92527.22
2023-03-15T03:53:34.662Z,92524.16
2023-03-15T03:54:32.267Z,92529.53
2023-03-15T03:55:28.855Z,92526.44
2023-03-15T03:56:25.523Z,92488.84
2023-03-15T03:57:22.173Z,92524.66
2023-03-15T03:58:18.748Z,92525.63
2023-03-15T03:59:15.366Z,92509.13
2023-03-15T04:00:16.984Z,92532.44
2023-03-15T04:01:13.683Z,92536.94
2023-03-15T04:02:10.774Z,92532.34
2023-03-15T04:03:08.200Z,92462.59
2023-03-15T04:04:05.095Z,92512.66
2023-03-15T04:05:02.025Z,92518.81
2023-03-15T04:06:00.321Z,92517.63
2023-03-15T04:06:56.977Z,92515.41
2023-03-15T04:07:54.042Z,92518.31
2023-03-15T04:08:50.695Z,92506.09
2023-03-15T04:09:47.370Z,92518.34
2023-03-15T04:10:43.959Z,92517.09
2023-03-15T04:11:44.496Z,92508.69
2023-03-15T04:12:44.475Z,92518.41
2023-03-15T04:13:41.158Z,92515.84
2023-03-15T04:14:37.854Z,92518.34
2023-03-15T04:15:34.502Z,92510.53
2023-03-15T04:16:31.235Z,92502.69
2023-03-15T04:17:27.815Z,92503.59
2023-03-15T04:18:24.493Z,92505.38
2023-03-15T04:19:21.091Z,92515.19
2023-03-15T04:20:17.860Z,92512.88
2023-03-15T04:21:14.456Z,92503.91
2023-03-15T04:22:15.324Z,92514.63
2023-03-15T04:23:12.038Z,92495.59
2023-03-15T04:24:08.669Z,92509.66
2023-03-15T04:25:05.910Z,92500.75
2023-03-15T04:26:03.644Z,92497.84
2023-03-15T04:27:00.777Z,92508.88
2023-03-15T04:28:00.218Z,92481.88
2023-03-15T04:28:58.766Z,92499.47
2023-03-15T04:29:55.535Z,92506.03
2023-03-15T04:30:52.319Z,92444.75
2023-03-15T04:31:48.927Z,92501.72
2023-03-15T04:32:45.578Z,92496.06
2023-03-15T04:33:42.275Z,92492.41
2023-03-15T04:34:39.028Z,92493.69
2023-03-15T04:35:37.462Z,92494.81
2023-03-15T04:36:34.237Z,92497.09
2023-03-15T04:37:32.321Z,92493.69
2023-03-15T04:38:28.990Z,92493.34
2023-03-15T04:39:25.614Z,92504.19
2023-03-15T04:40:24.188Z,92501.72
2023-03-15T04:41:20.742Z,92498.72
2023-03-15T04:42:17.267Z,92503.91
2023-03-15T04:43:13.883Z,92500.22
2023-03-15T04:44:10.462Z,92470.44
2023-03-15T04:45:07.713Z,92452.22
2023-03-15T04:46:04.491Z,92507.13
2023-03-15T04:47:01.152Z,92500.63
2023-03-15T04:47:58.986Z,92505.66
2023-03-15T04:48:55.578Z,92467.28
2023-03-15T04:49:52.210Z,92502.84
2023-03-15T04:50:48.824Z,92499.44
2023-03-15T04:51:45.374Z,92497.69
2023-03-15T04:52:42.048Z,92488.06
2023-03-15T04:53:39.882Z,92488.19
2023-03-15T04:54:36.499Z,92495.78
2023-03-15T04:55:33.237Z,92503.84
2023-03-15T04:56:30.678Z,92490.78
2023-03-15T04:57:27.266Z,92506.34
2023-03-15T04:58:23.952Z,92504.31
2023-03-15T04:59:20.716Z,92506.00
2023-03-15T05:00:18.003Z,92490.94
2023-03-15T05:01:14.647Z,92505.69
2023-03-15T05:02:11.383Z,92454.16
2023-03-15T05:03:08.129Z,92498.25
2023-03-15T05:04:04.965Z,92502.94
2023-03-15T05:05:01.649Z,92501.81
2023-03-15T05:05:58.248Z,92499.59
2023-03-15T05:06:54.951Z,92487.41
2023-03-15T05:07:51.820Z,92487.84
2023-03-15T05:08:48.638Z,92489.97
2023-03-15T05:09:46.702Z,92495.53
2023-03-15T05:10:44.186Z,92494.56
2023-03-15T05:11:40.859Z,92478.50
2023-03-15T05:12:37.648Z,92462.72
2023-03-15T05:13:34.332Z,92492.69
2023-03-15T05:14:31.744Z,92494.63
2023-03-15T05:15:28.483Z,92491.63
2023-03-15T05:16:25.197Z,92491.88
2023-03-15T05:17:22.564Z,92498.38
2023-03-15T05:18:19.146Z,92492.94
2023-03-15T05:19:15.748Z,92501.13
2023-03-15T05:20:13.631Z,92487.47
2023-03-15T05:21:10.233Z,92488.50
2023-03-15T05:22:06.914Z,92490.31
2023-03-15T05:23:04.778Z,92486.88
2023-03-15T05:24:01.645Z,92485.16
2023-03-15T05:24:58.321Z,92488.31
2023-03-15T05:25:56.274Z,92484.06
2023-03-15T05:26:54.290Z,92490.00
2023-03-15T05:27:50.888Z,92491.13
2023-03-15T05:28:47.490Z,92493.94
2023-03-15T05:29:45.249Z,92490.44
2023-03-15T05:30:42.737Z,92487.88
2023-03-15T05:31:40.015Z,92482.50
2023-03-15T05:32:39.569Z,92509.84
2023-03-15T05:33:36.329Z,92504.69
2023-03-15T05:34:32.866Z,92509.63
2023-03-15T05:35:29.817Z,92450.50
2023-03-15T05:36:26.410Z,92500.41
2023-03-15T05:37:23.794Z,92512.06
2023-03-15T05:38:20.470Z,92508.53
2023-03-15T05:39:18.025Z,92510.84
2023-03-15T05:40:15.433Z,92512.41
2023-03-15T05:41:12.099Z,92510.03
2023-03-15T05:42:08.720Z,92503.19
2023-03-15T05:43:05.285Z,92501.56
2023-03-15T05:44:01.864Z,92502.88
2023-03-15T05:44:58.483Z,92504.34
2023-03-15T05:45:55.140Z,92499.38
2023-03-15T05:46:51.781Z,92501.13
2023-03-15T05:47:48.485Z,92492.81
2023-03-15T05:48:45.078Z,92498.72
2023-03-15T05:49:41.663Z,92503.09
2023-03-15T05:50:38.605Z,92501.88
2023-03-15T05:51:35.727Z,92499.31
2023-03-15T05:52:32.299Z,92488.03
2023-03-15T05:53:29.016Z,92499.13
2023-03-15T05:54:25.701Z,92493.22
2023-03-15T05:55:22.323Z,92463.81
2023-03-15T05:56:18.871Z,92490.25
2023-03-15T05:57:15.962Z,92444.53
2023-03-15T05:58:12.802Z,92482.31
2023-03-15T05:59:09.333Z,92477.38
2023-03-15T06:00:06.864Z,92464.53
2023-03-15T06:01:04.755Z,92469.66
2023-03-15T06:02:01.599Z,92471.59
2023-03-15T06:02:58.288Z,92484.66
2023-03-15T06:03:54.930Z,92457.03
2023-03-15T06:04:51.513Z,92475.59
2023-03-15T06:05:48.110Z,92474.75
2023-03-15T06:06:44.705Z,92477.09
2023-03-15T06:07:41.399Z,92471.94
2023-03-15T06:08:38.003Z,92439.97
2023-03-15T06:09:34.702Z,92479.81
2023-03-15T06:10:31.346Z,92484.81
2023-03-15T06:11:27.889Z,92487.69
2023-03-15T06:12:24.457Z,92489.00
2023-03-15T06:13:21.021Z,92488.66
2023-03-15T06:14:17.645Z,92492.38
2023-03-15T06:15:14.261Z,92497.25
2023-03-15T06:16:10.833Z,92488.22
2023-03-15T06:17:07.630Z,92498.97
2023-03-15T06:18:04.869Z,92493.50
2023-03-15T06:19:01.567Z,92496.38
2023-03-15T06:19:58.292Z,92490.75
2023-03-15T06:20:54.880Z,92496.25
2023-03-15T06:21:51.604Z,92495.84
2023-03-15T06:22:48.341Z,92487.47
2023-03-15T06:23:45.019Z,92491.66
2023-03-15T06:24:41.650Z,92480.41
2023-03-15T06:25:38.694Z,92491.59
2023-03-15T06:26:35.275Z,92480.88
2023-03-15T06:27:31.858Z,92444.63
2023-03-15T06:28:28.574Z,92495.03
2023-03-15T06:29:25.393Z,92496.00
2023-03-15T06:30:22.190Z,92498.50
2023-03-15T06:31:18.850Z,92493.81
2023-03-15T06:32:15.461Z,92487.72
2023-03-15T06:33:12.098Z,92452.47
2023-03-15T06:34:08.994Z,92483.59
2023-03-15T06:35:06.580Z,92484.31
2023-03-15T06:36:03.419Z,92480.59
2023-03-15T06:37:00.010Z,92490.25
2023-03-15T06:37:56.817Z,92489.53
2023-03-15T06:38:54.619Z,92499.63
2023-03-15T06:39:51.523Z,92488.16
2023-03-15T06:40:48.292Z,92483.63
2023-03-15T06:41:45.003Z,92479.75
2023-03-15T06:42:41.791Z,92472.94
2023-03-15T06:43:39.345Z,92475.25
2023-03-15T06:44:36.042Z,92466.44
2023-03-15T06:45:33.766Z,92453.75
2023-03-15T06:46:30.452Z,92490.91
2023-03-15T06:47:27.218Z,92484.66
2023-03-15T06:48:23.895Z,92494.19
2023-03-15T06:49:20.645Z,92483.88
2023-03-15T06:50:17.533Z,92468.06
2023-03-15T06:51:14.222Z,92488.31
2023-03-15T06:52:11.043Z,92473.94
2023-03-15T06:53:07.631Z,92481.03
2023-03-15T06:54:04.356Z,92447.66
2023-03-15T06:55:01.037Z,92481.78
2023-03-15T06:55:57.687Z,92484.63
2023-03-15T06:56:54.333Z,92487.66
2023-03-15T06:57:51.006Z,92487.31
2023-03-15T06:58:47.599Z,92472.31
2023-03-15T06:59:44.322Z,92481.66
2023-03-15T07:00:41.619Z,92490.34
2023-03-15T07:01:42.208Z,92489.38
2023-03-15T07:02:38.953Z,92480.59
2023-03-15T07:03:35.605Z,92452.66
2023-03-15T07:04:32.221Z,92485.22
2023-03-15T07:05:28.968Z,92433.13
2023-03-15T07:06:27.678Z,92484.97
2023-03-15T07:07:24.324Z,92470.16
2023-03-15T07:08:22.146Z,92486.00
2023-03-15T07:09:18.921Z,92490.63
2023-03-15T07:10:15.597Z,92485.94
2023-03-15T07:11:13.320Z,92481.97
2023-03-15T07:12:10.739Z,92484.78
2023-03-15T07:13:07.476Z,92469.50
2023-03-15T07:14:04.157Z,92485.22
2023-03-15T07:15:00.714Z,92490.66
2023-03-15T07:15:57.368Z,92489.19
2023-03-15T07:16:54.138Z,92404.91
2023-03-15T07:17:50.847Z,92482.41
2023-03-15T07:18:47.514Z,92484.66
2023-03-15T07:19:55.943Z,92480.06
2023-03-15T07:20:57.670Z,92464.94
2023-03-15T07:21:54.294Z,92495.91
2023-03-15T07:22:50.959Z,92489.16
2023-03-15T07:23:47.703Z,92492.94
2023-03-15T07:24:44.393Z,92491.47
2023-03-15T07:25:52.334Z,92489.16
2023-03-15T07:26:56.341Z,92483.00
2023-03-15T07:27:53.877Z,92486.38
2023-03-15T07:28:50.685Z,92481.72
2023-03-15T07:29:47.246Z,92473.84
2023-03-15T07:30:52.998Z,92459.88
2023-03-15T07:31:50.616Z,92470.06
2023-03-15T07:32:47.505Z,92475.84
2023-03-15T07:33:44.437Z,92472.72
2023-03-15T07:34:41.237Z,92474.34
2023-03-15T07:35:37.906Z,92468.28
2023-03-15T07:36:34.449Z,92459.91
2023-03-15T07:37:31.027Z,92465.06
2023-03-15T07:38:31.261Z,92435.38
2023-03-15T07:39:29.158Z,92471.88
2023-03-15T07:40:26.490Z,92464.91
2023-03-15T07:41:23.148Z,92472.47
2023-03-15T07:42:20.299Z,92462.78
2023-03-15T07:43:17.484Z,92470.75
2023-03-15T07:44:14.208Z,92469.69
2023-03-15T07:45:11.309Z,92468.28
2023-03-15T07:46:08.038Z,92434.00
2023-03-15T07:47:04.909Z,92453.88
2023-03-15T07:48:01.696Z,92458.47
2023-03-15T07:48:58.415Z,92464.50
2023-03-15T07:49:55.009Z,92462.31
2023-03-15T07:50:51.794Z,92457.63
2023-03-15T07:51:48.369Z,92464.81
2023-03-15T07:52:45.002Z,92460.22
2023-03-15T07:53:41.730Z,92460.72
2023-03-15T07:54:38.877Z,92461.66
2023-03-15T07:55:36.007Z,92460.91
2023-03-15T07:56:32.572Z,92462.31
2023-03-15T07:57:29.115Z,92429.41
2023-03-15T07:58:25.753Z,92468.16
2023-03-15T07:59:22.444Z,92467.22
2023-03-15T08:00:19.559Z,92472.72
2023-03-15T08:01:16.253Z,92472.72
2023-03-15T08:02:14.611Z,92472.69
2023-03-15T08:03:11.508Z,92468.97
2023-03-15T08:04:08.107Z,92453.72
2023-03-15T08:05:05.144Z,92426.63
2023-03-15T08:06:01.973Z,92464.22
2023-03-15T08:06:58.502Z,92418.38
2023-03-15T08:07:55.134Z,92478.72
2023-03-15T08:08:51.878Z,92470.47
2023-03-15T08:09:48.640Z,92465.81
2023-03-15T08:10:45.861Z,92467.25
2023-03-15T08:11:43.523Z,92468.19
2023-03-15T08:12:43.134Z,92472.06
2023-03-15T08:13:39.748Z,92464.47
2023-03-15T08:14:37.273Z,92455.97
2023-03-15T08:15:33.863Z,92458.66
2023-03-15T08:16:30.514Z,92449.50
2023-03-15T08:17:27.181Z,92451.38
2023-03-15T08:18:23.860Z,92447.84
2023-03-15T08:19:22.185Z,92443.91
2023-03-15T08:20:19.156Z,92448.97
2023-03-15T08:21:15.834Z,92448.66
2023-03-15T08:22:12.558Z,92443.66
2023-03-15T08:23:09.321Z,92452.34
2023-03-15T08:24:06.362Z,92452.34
2023-03-15T08:25:03.093Z,92442.50
2023-03-15T08:25:59.780Z,92346.31
2023-03-15T08:26:56.359Z,92416.59
2023-03-15T08:27:53.168Z,92433.88
2023-03-15T08:28:49.781Z,92434.28
2023-03-15T08:29:46.404Z,92403.75
2023-03-15T08:30:43.010Z,92433.31
2023-03-15T08:31:39.808Z,92440.91
2023-03-15T08:32:36.492Z,92425.56
2023-03-15T08:33:33.506Z,92398.22
2023-03-15T08:34:30.139Z,92441.41
2023-03-15T08:35:26.858Z,92446.72
2023-03-15T08:36:23.664Z,92440.06
2023-03-15T08:37:21.065Z,92440.97
2023-03-15T08:38:17.931Z,92437.97
2023-03-15T08:39:14.790Z,92430.06
2023-03-15T08:40:12.098Z,92442.69
2023-03-15T08:41:08.734Z,92437.69
2023-03-15T08:42:06.726Z,92407.94
2023-03-15T08:43:03.487Z,92440.75
2023-03-15T08:44:00.935Z,92446.09
2023-03-15T08:44:59.636Z,92450.31
2023-03-15T08:46:01.033Z,92440.34
2023-03-15T08:46:58.130Z,92444.19
2023-03-15T08:47:58.987Z,92422.06
2023-03-15T08:48:55.638Z,92417.09
2023-03-15T08:49:53.288Z,92435.44
2023-03-15T08:50:49.878Z,92370.22
2023-03-15T08:51:46.560Z,92440.38
2023-03-15T08:52:43.847Z,92447.25
2023-03-15T08:53:41.011Z,92380.41
2023-03-15T08:54:38.424Z,92442.50
2023-03-15T08:55:35.042Z,92441.88
2023-03-15T08:56:32.533Z,92443.03
2023-03-15T08:57:29.872Z,92441.91
2023-03-15T08:58:26.929Z,92436.94
2023-03-15T08:59:31.753Z,92438.09
2023-03-15T09:00:29.128Z,92440.34
2023-03-15T09:01:25.707Z,92406.03
2023-03-15T09:02:23.551Z,92437.31
2023-03-15T09:03:20.883Z,92433.91
2023-03-15T09:04:17.609Z,92435.06
2023-03-15T09:05:15.904Z,92431.97
2023-03-15T09:06:12.901Z,92431.22
2023-03-15T09:07:09.572Z,92432.75
2023-03-15T09:08:06.156Z,92394.56
2023-03-15T09:09:03.758Z,92426.59
2023-03-15T09:10:00.354Z,92443.00
2023-03-15T09:10:58.202Z,92438.03
2023-03-15T09:11:56.314Z,92431.56
2023-03-15T09:12:54.076Z,92434.84
2023-03-15T09:13:50.807Z,92440.31
2023-03-15T09:14:47.805Z,92434.97
2023-03-15T09:15:44.469Z,92391.56
2023-03-15T09:16:41.338Z,92431.59
2023-03-15T09:17:39.521Z,92430.06
2023-03-15T09:18:36.205Z,92432.34
2023-03-15T09:19:33.020Z,92433.06
2023-03-15T09:20:29.938Z,92427.78
2023-03-15T09:21:27.697Z,92428.41
2023-03-15T09:22:38.528Z,92412.03
2023-03-15T09:23:36.393Z,92430.09
2023-03-15T09:24:33.207Z,92439.22
2023-03-15T09:25:29.881Z,92427.41
2023-03-15T09:26:26.515Z,92436.94
2023-03-15T09:27:23.165Z,92438.47
2023-03-15T09:28:19.827Z,92413.69
2023-03-15T09:29:16.414Z,92436.16
2023-03-15T09:30:14.071Z,92433.50
2023-03-15T09:31:11.641Z,92438.81
2023-03-15T09:32:08.618Z,92436.53
2023-03-15T09:33:05.346Z,92435.41
2023-03-15T09:34:02.032Z,92441.81
2023-03-15T09:34:58.670Z,92430.38
2023-03-15T09:35:55.350Z,92438.00
2023-03-15T09:36:53.191Z,92430.78
2023-03-15T09:37:50.437Z,92420.50
2023-03-15T09:38:47.922Z,92433.44
2023-03-15T09:39:44.627Z,92391.91
2023-03-15T09:40:46.610Z,92435.78
2023-03-15T09:41:47.207Z,92429.69
2023-03-15T09:43:15.629Z,92434.97
2023-03-15T09:44:17.832Z,92427.81
2023-03-15T09:45:53.016Z,92422.66
2023-03-15T09:47:14.166Z,92418.94
2023-03-15T09:48:51.080Z,92422.38
2023-03-15T09:49:54.137Z,92428.09
2023-03-15T09:51:03.220Z,92385.06
2023-03-15T09:51:59.817Z,92419.41
2023-03-15T09:53:27.525Z,92413.31
2023-03-15T09:54:51.663Z,92397.28
2023-03-15T09:55:51.089Z,92414.44
2023-03-15T09:57:00.015Z,92418.25
2023-03-15T09:58:01.150Z,92420.53
2023-03-15T09:59:01.726Z,92422.06
2023-03-15T09:59:59.554Z,92418.59
2023-03-15T10:01:25.854Z,92420.44
2023-03-15T10:02:22.452Z,92420.91
2023-03-15T10:03:32.190Z,92417.44
2023-03-15T10:04:34.941Z,92407.16
2023-03-15T10:05:35.195Z,92411.69
2023-03-15T10:06:37.747Z,92409.28
2023-03-15T10:07:35.998Z,92408.38
2023-03-15T10:08:33.707Z,92401.31
2023-03-15T10:09:35.620Z,92362.75
2023-03-15T10:10:36.269Z,92385.81
2023-03-15T10:11:41.543Z,92404.81
2023-03-15T10:12:43.987Z,92391.63
2023-03-15T10:13:58.991Z,92412.34
2023-03-15T10:15:16.500Z,92404.53
2023-03-15T10:16:42.019Z,92399.44
2023-03-15T10:17:41.369Z,92402.78
2023-03-15T10:19:07.285Z,92406.84
2023-03-15T10:20:12.287Z,92407.53
2023-03-15T10:21:22.045Z,92397.91
2023-03-15T10:22:29.751Z,92399.25
2023-03-15T10:23:39.548Z,92402.59
2023-03-15T10:24:50.815Z,92372.25
2023-03-15T10:25:51.199Z,92368.47
2023-03-15T10:26:51.683Z,92408.19
2023-03-15T10:27:52.882Z,92408.94
2023-03-15T10:28:50.124Z,92401.13
2023-03-15T10:29:49.301Z,92378.06
2023-03-15T10:30:49.705Z,92370.47
2023-03-15T10:31:47.458Z,92398.09
2023-03-15T10:32:47.501Z,92394.78
2023-03-15T10:33:45.676Z,92393.56
2023-03-15T10:34:42.243Z,92396.22
2023-03-15T10:35:38.954Z,92400.81
2023-03-15T10:36:35.739Z,92382.31
2023-03-15T10:37:35.318Z,92392.84
2023-03-15T10:38:32.255Z,92382.34
2023-03-15T10:39:29.367Z,92391.84
2023-03-15T10:40:48.786Z,92395.88
2023-03-15T10:41:49.109Z,92339.25
2023-03-15T10:42:47.318Z,92400.03
2023-03-15T10:44:04.169Z,92395.28
2023-03-15T10:45:20.924Z,92388.47
2023-03-15T10:46:24.581Z,92391.53
2023-03-15T10:47:24.361Z,92307.63
2023-03-15T10:48:21.320Z,92388.50
2023-03-15T10:49:17.879Z,92386.19
2023-03-15T10:50:31.885Z,92401.47
2023-03-15T10:51:37.537Z,92388.13
2023-03-15T10:52:43.765Z,92390.78
2023-03-15T10:54:08.710Z,92393.81
2023-03-15T10:55:11.767Z,92313.25
2023-03-15T10:56:19.602Z,92383.41
2023-03-15T10:57:19.709Z,92390.38
2023-03-15T10:58:31.640Z,92385.44
2023-03-15T10:59:31.485Z,92390.41
2023-03-15T11:00:32.663Z,92392.69
2023-03-15T11:01:34.827Z,92287.03
2023-03-15T11:02:31.769Z,92399.16
2023-03-15T11:03:29.498Z,92388.13
2023-03-15T11:04:34.162Z,92385.06
2023-03-15T11:05:46.155Z,92380.88
2023-03-15T11:06:44.993Z,92381.66
2023-03-15T11:08:00.181Z,92390.00
2023-03-15T11:09:09.506Z,92352.53
2023-03-15T11:10:07.052Z,92396.00
2023-03-15T11:11:03.905Z,92399.81
2023-03-15T11:12:03.855Z,92398.66
2023-03-15T11:13:29.743Z,92405.53
2023-03-15T11:14:33.643Z,92408.66
2023-03-15T11:15:30.282Z,92407.84
2023-03-15T11:16:26.962Z,92404.31
2023-03-15T11:17:29.359Z,92408.50
2023-03-15T11:18:27.907Z,92404.88
2023-03-15T11:19:31.282Z,92354.88
2023-03-15T11:20:35.750Z,92394.97
2023-03-15T11:21:36.870Z,92396.16
2023-03-15T11:22:33.569Z,92396.13
2023-03-15T11:23:35.594Z,92397.63
2023-03-15T11:24:34.435Z,92386.94
2023-03-15T11:25:33.258Z,92391.50
2023-03-15T11:26:34.855Z,92388.13
2023-03-15T11:27:31.999Z,92384.69
2023-03-15T11:28:32.052Z,92387.72
2023-03-15T11:29:34.175Z,92387.75
2023-03-15T11:30:31.525Z,92390.03
2023-03-15T11:31:31.375Z,92356.84